Time;durP1;ratioP1;P1;durP2;ratioP2;P2;SDS_P1;SDS_P2;PMS_P1;PMS_P2;Temp;Humidity;BMP_temperature;BMP_pressure;BME280_temperature;BME280_humidity;BME280_pressure;Samples;Min_cycle;Max_cycle;Signal;HPM_P1;HPM_P2
2021/06/18 00:01:03;;;;;;;9.45;8.48;;;;;;;21.90;57.71;100989.56;5073906;28;20028;-80
2021/06/18 00:03:28;;;;;;;9.07;8.18;;;;;;;21.89;57.86;100993.50;5068894;28;20044;-79
2021/06/18 00:05:53;;;;;;;10.52;7.60;;;;;;;21.93;57.82;100988.88;5067113;28;20024;-80
2021/06/18 00:08:19;;;;;;;11.27;8.60;;;;;;;21.94;57.96;100987.72;5085267;28;20024;-80
2021/06/18 00:10:44;;;;;;;9.57;7.85;;;;;;;21.94;58.05;100981.38;5082466;28;20035;-80
2021/06/18 00:13:10;;;;;;;10.40;8.40;;;;;;;21.94;57.60;100981.38;5077882;28;20465;-79
2021/06/18 00:15:35;;;;;;;10.02;8.93;;;;;;;21.97;58.11;100980.66;5067390;28;20033;-83
2021/06/18 00:18:00;;;;;;;11.05;7.95;;;;;;;21.96;58.24;100970.69;5070840;28;20029;-80
2021/06/18 00:20:26;;;;;;;9.45;8.32;;;;;;;21.94;58.12;100964.72;5094824;28;20039;-80
2021/06/18 00:22:51;;;;;;;12.50;8.85;;;;;;;21.91;58.34;100968.19;5075117;28;20036;-79
2021/06/18 00:25:18;;;;;;;9.27;8.32;;;;;;;21.88;58.57;100957.75;5071912;28;20020;-80
2021/06/18 00:27:43;;;;;;;10.02;7.85;;;;;;;21.84;58.43;100952.09;5063121;28;20032;-80
2021/06/18 00:30:09;;;;;;;10.73;8.43;;;;;;;21.86;58.74;100954.53;5072109;28;20094;-79
2021/06/18 00:32:35;;;;;;;9.73;8.73;;;;;;;21.86;58.94;100969.22;5071791;28;20055;-80
2021/06/18 00:35:00;;;;;;;10.93;9.85;;;;;;;21.90;58.87;100947.91;5072498;28;20363;-80
2021/06/18 00:37:26;;;;;;;13.57;10.38;;;;;;;22.03;58.51;100959.84;5065529;28;20402;-80
2021/06/18 00:39:51;;;;;;;11.60;10.27;;;;;;;22.12;58.33;100924.41;5060580;28;20025;-79
2021/06/18 00:42:17;;;;;;;11.90;10.52;;;;;;;22.13;58.18;100945.50;5070568;28;20359;-79
2021/06/18 00:44:42;;;;;;;14.55;10.50;;;;;;;22.16;58.08;100930.91;5071936;28;20025;-79
2021/06/18 00:47:15;;;;;;;14.43;11.70;;;;;;;22.16;57.98;100957.88;5070416;28;20025;-79
2021/06/18 00:49:40;;;;;;;15.63;11.57;;;;;;;22.16;58.38;100968.97;5070871;28;20032;-79
2021/06/18 00:52:05;;;;;;;18.27;12.95;;;;;;;22.17;58.35;100940.84;5073047;28;20028;-80
2021/06/18 00:54:31;;;;;;;16.85;12.85;;;;;;;22.21;58.40;100962.41;5070695;28;20024;-79
2021/06/18 00:56:59;;;;;;;16.35;12.95;;;;;;;22.19;58.44;100975.84;5072652;28;20051;-79
2021/06/18 00:59:26;;;;;;;19.40;13.43;;;;;;;22.15;58.66;100968.19;5071035;28;20090;-80
2021/06/18 01:01:51;;;;;;;18.10;14.57;;;;;;;22.16;58.66;100969.78;5066196;28;20020;-79
2021/06/18 01:04:18;;;;;;;22.55;15.23;;;;;;;22.15;58.73;100967.34;5070598;28;20051;-80
2021/06/18 01:06:43;;;;;;;17.00;14.13;;;;;;;22.03;59.08;100970.13;5058512;28;20043;-79
2021/06/18 01:09:11;;;;;;;22.77;14.98;;;;;;;21.85;59.62;100964.00;5072223;28;20025;-78
2021/06/18 01:11:58;;;;;;;18.98;14.15;;;;;;;21.58;60.54;100957.97;5048160;28;20149;-80
2021/06/18 01:14:30;;;;;;;15.98;13.82;;;;;;;21.39;61.02;100963.22;5068582;28;20024;-79
2021/06/18 01:16:57;;;;;;;16.80;13.00;;;;;;;21.29;61.63;100964.47;5053206;28;20043;-80
2021/06/18 01:19:28;;;;;;;19.48;13.70;;;;;;;21.14;61.90;100952.03;5049493;28;20119;-79
2021/06/18 01:22:02;;;;;;;16.13;12.50;;;;;;;21.05;62.49;100954.88;5064765;28;20024;-79
2021/06/18 01:24:54;;;;;;;21.33;13.48;;;;;;;20.99;62.95;100955.47;5051384;28;20047;-79
2021/06/18 01:27:20;;;;;;;20.80;13.63;;;;;;;20.97;62.99;100971.59;5058856;28;20035;-79
2021/06/18 01:30:00;;;;;;;17.35;12.77;;;;;;;20.89;63.43;100950.31;5070510;28;20020;-80
2021/06/18 01:32:38;;;;;;;17.92;11.52;;;;;;;20.76;63.93;100972.44;5068495;28;20494;-79
2021/06/18 01:35:05;;;;;;;15.70;12.07;;;;;;;20.64;64.31;100964.06;5055030;28;20035;-80
2021/06/18 01:37:30;;;;;;;18.02;11.15;;;;;;;20.52;64.64;100975.03;5068832;28;20037;-80
2021/06/18 01:39:57;;;;;;;14.63;12.15;;;;;;;20.42;65.60;100961.59;5072055;28;20393;-80
2021/06/18 01:42:23;;;;;;;18.88;13.00;;;;;;;20.31;66.09;100986.91;5052413;28;20399;-79
2021/06/18 01:44:48;;;;;;;20.45;12.45;;;;;;;20.25;66.28;100963.31;5072837;28;20024;-79
2021/06/18 01:47:14;;;;;;;16.70;10.88;;;;;;;20.18;66.88;100954.72;5070007;28;20031;-79
2021/06/18 01:49:40;;;;;;;18.88;11.48;;;;;;;20.11;66.92;100960.00;5055215;28;20448;-80
2021/06/18 01:52:06;;;;;;;13.52;10.75;;;;;;;20.06;67.10;100944.38;5069110;28;20024;-80
2021/06/18 01:54:32;;;;;;;17.35;12.05;;;;;;;20.01;67.60;100965.91;5069985;28;20080;-80
2021/06/18 01:56:59;;;;;;;15.68;10.60;;;;;;;19.95;67.85;100965.28;5071089;28;20077;-80
2021/06/18 01:59:24;;;;;;;16.60;10.98;;;;;;;19.88;68.33;100965.78;5061390;28;20299;-81
2021/06/18 02:01:50;;;;;;;19.35;12.45;;;;;;;19.86;68.80;100947.88;5072938;28;20150;-80
2021/06/18 02:04:16;;;;;;;20.85;9.75;;;;;;;19.83;69.10;100943.81;5069727;28;20496;-80
2021/06/18 02:06:41;;;;;;;13.82;9.30;;;;;;;19.82;69.42;100944.97;5070936;28;20191;-80
2021/06/18 02:09:07;;;;;;;12.43;9.00;;;;;;;19.82;69.02;100930.34;5061005;28;20025;-79
2021/06/18 02:11:34;;;;;;;16.52;11.40;;;;;;;19.79;69.73;100936.53;5065057;28;20044;-80
2021/06/18 02:13:59;;;;;;;14.80;12.43;;;;;;;19.76;69.94;100938.03;5069096;28;20063;-80
2021/06/18 02:16:26;;;;;;;15.40;11.65;;;;;;;19.69;70.15;100944.06;5058350;28;20530;-80
2021/06/18 02:18:55;;;;;;;17.98;11.25;;;;;;;19.65;70.43;100956.09;5077696;28;20020;-80
2021/06/18 02:21:20;;;;;;;16.70;11.60;;;;;;;19.62;70.72;100937.41;5058320;28;20020;-80
2021/06/18 02:23:46;;;;;;;21.17;13.48;;;;;;;19.58;71.03;100936.44;5077810;28;20141;-80
2021/06/18 02:26:11;;;;;;;19.63;12.65;;;;;;;19.56;70.92;100933.19;5045108;28;20028;-80
2021/06/18 02:28:38;;;;;;;17.40;12.18;;;;;;;19.54;71.22;100936.28;5075649;28;20377;-80
2021/06/18 02:31:04;;;;;;;16.13;11.13;;;;;;;19.54;71.26;100938.25;5069841;28;20052;-79
2021/06/18 02:33:29;;;;;;;20.30;13.02;;;;;;;19.50;71.72;100932.56;5047678;28;20363;-79
2021/06/18 02:35:56;;;;;;;19.00;12.98;;;;;;;19.47;71.73;100941.50;5070974;28;20474;-80
2021/06/18 02:38:21;;;;;;;20.08;12.60;;;;;;;19.46;72.14;100946.22;5072948;28;20087;-79
2021/06/18 02:40:47;;;;;;;17.25;12.85;;;;;;;19.47;72.23;100947.84;5087046;28;20035;-79
2021/06/18 02:43:12;;;;;;;16.38;13.10;;;;;;;19.49;72.26;100956.63;5072819;28;20020;-79
2021/06/18 02:45:38;;;;;;;20.38;14.10;;;;;;;19.47;72.35;100972.72;5073011;28;20427;-79
2021/06/18 02:48:29;;;;;;;18.50;12.93;;;;;;;19.43;72.46;100970.97;5067850;28;20029;-79
2021/06/18 02:51:01;;;;;;;20.08;13.45;;;;;;;19.37;72.53;100970.34;5063141;28;20103;-79
2021/06/18 02:53:46;;;;;;;18.40;13.48;;;;;;;19.30;72.93;100976.34;5079748;28;20029;-79
2021/06/18 02:56:36;;;;;;;20.23;13.48;;;;;;;19.24;73.27;100972.16;5027751;28;20057;-81
2021/06/18 02:59:18;;;;;;;18.77;13.40;;;;;;;19.22;73.34;100965.31;5074855;28;20021;-81
2021/06/18 03:01:43;;;;;;;20.17;13.55;;;;;;;19.20;73.77;100973.13;5071685;28;20162;-81
2021/06/18 03:04:11;;;;;;;20.27;14.77;;;;;;;19.21;73.89;100980.28;5072370;28;20505;-79
2021/06/18 03:06:37;;;;;;;18.95;13.05;;;;;;;19.17;74.09;100976.53;5068059;28;20043;-80
2021/06/18 03:09:06;;;;;;;16.67;14.10;;;;;;;19.16;74.05;100981.25;5070221;28;20025;-80
2021/06/18 03:11:38;;;;;;;16.23;13.35;;;;;;;19.15;74.47;100981.56;5073683;28;20024;-79
2021/06/18 03:14:07;;;;;;;17.38;12.77;;;;;;;19.13;74.71;100986.66;5053457;28;20108;-79
2021/06/18 03:16:32;;;;;;;22.58;14.70;;;;;;;19.10;74.77;100992.78;5056917;28;20504;-79
2021/06/18 03:19:01;;;;;;;19.17;15.52;;;;;;;19.07;74.94;100995.09;5056773;28;20036;-80
2021/06/18 03:21:27;;;;;;;20.50;14.07;;;;;;;19.03;75.24;101004.34;5073564;28;20047;-79
2021/06/18 03:23:52;;;;;;;27.85;14.90;;;;;;;18.98;75.45;101012.81;5070511;28;20363;-80
2021/06/18 03:26:17;;;;;;;18.75;15.65;;;;;;;18.95;75.49;101013.47;5073226;28;20032;-79
2021/06/18 03:28:43;;;;;;;20.58;14.90;;;;;;;18.93;76.02;101005.47;5079161;28;20029;-80
2021/06/18 03:31:10;;;;;;;22.70;15.40;;;;;;;18.89;75.79;101023.84;5066649;28;20036;-79
2021/06/18 03:33:35;;;;;;;21.70;15.25;;;;;;;18.89;76.03;101021.09;5058800;28;20028;-80
2021/06/18 03:36:01;;;;;;;25.30;15.32;;;;;;;18.88;76.21;101029.69;5068574;28;20054;-79
2021/06/18 03:38:26;;;;;;;24.25;15.20;;;;;;;18.88;76.74;101025.00;5083517;28;20044;-80
2021/06/18 03:40:52;;;;;;;19.02;15.57;;;;;;;18.88;76.73;101027.78;5072608;28;20373;-80
2021/06/18 03:43:17;;;;;;;28.95;15.55;;;;;;;18.84;77.04;101035.06;5055749;28;20033;-80
2021/06/18 03:45:46;;;;;;;23.42;16.33;;;;;;;18.88;77.41;101029.69;5073564;28;20028;-80
2021/06/18 03:48:12;;;;;;;23.45;17.17;;;;;;;18.88;77.37;101035.22;5057631;28;20389;-80
2021/06/18 03:50:38;;;;;;;22.58;16.27;;;;;;;18.91;77.47;101040.13;5066839;28;20035;-80
2021/06/18 03:53:03;;;;;;;23.58;16.98;;;;;;;18.92;77.74;101039.78;5067871;28;20020;-79
2021/06/18 03:55:29;;;;;;;21.60;17.10;;;;;;;18.93;77.65;101038.63;5066713;28;20020;-79
2021/06/18 03:57:54;;;;;;;23.55;17.52;;;;;;;18.93;77.83;101044.16;5071349;28;20138;-80
2021/06/18 04:00:20;;;;;;;24.23;17.45;;;;;;;18.96;77.71;101048.22;5056988;28;20028;-79
2021/06/18 04:02:46;;;;;;;25.23;18.23;;;;;;;18.99;77.71;101042.09;5068550;28;20024;-80
2021/06/18 04:05:14;;;;;;;26.77;17.58;;;;;;;19.02;77.85;101058.00;5053412;28;20533;-79
2021/06/18 04:07:43;;;;;;;28.77;18.33;;;;;;;19.02;77.79;101058.81;5054011;28;20055;-80
2021/06/18 04:10:10;;;;;;;24.70;17.27;;;;;;;19.04;77.60;101058.47;5068434;28;20021;-80
2021/06/18 04:12:36;;;;;;;28.08;17.88;;;;;;;19.03;77.72;101054.91;5062968;28;20041;-80
2021/06/18 04:15:01;;;;;;;29.65;18.05;;;;;;;19.04;77.67;101067.59;5050900;28;20024;-80
2021/06/18 04:17:27;;;;;;;25.02;18.67;;;;;;;19.05;77.66;101058.16;5061586;28;20032;-80
2021/06/18 04:19:52;;;;;;;29.60;18.40;;;;;;;19.07;77.88;101066.94;5072842;28;20024;-80
2021/06/18 04:22:23;;;;;;;27.13;18.20;;;;;;;19.08;77.84;101054.75;5071271;28;20028;-80
2021/06/18 04:24:49;;;;;;;29.25;18.60;;;;;;;19.08;77.94;101071.31;5053361;28;20100;-80
2021/06/18 04:27:14;;;;;;;28.95;17.15;;;;;;;19.06;77.80;101065.31;5068520;28;20098;-80
2021/06/18 04:29:39;;;;;;;23.23;18.65;;;;;;;19.05;78.25;101071.16;5055112;28;20024;-80
2021/06/18 04:32:05;;;;;;;25.88;19.45;;;;;;;19.03;78.15;101065.16;5071316;28;20055;-80
2021/06/18 04:34:31;;;;;;;31.23;20.20;;;;;;;19.02;78.74;101080.13;5068837;28;20108;-76
2021/06/18 04:36:56;;;;;;;27.92;18.90;;;;;;;19.01;78.57;101082.03;5072942;28;20028;-76
2021/06/18 04:39:21;;;;;;;25.33;19.60;;;;;;;19.00;78.63;101083.19;5083043;28;20025;-76
2021/06/18 04:41:48;;;;;;;24.88;19.40;;;;;;;18.98;78.99;101071.63;5070660;28;20032;-76
2021/06/18 04:44:13;;;;;;;31.70;19.20;;;;;;;18.98;78.97;101082.69;5068003;28;20029;-76
2021/06/18 04:46:39;;;;;;;30.90;20.00;;;;;;;18.98;79.02;101082.69;5070330;28;20028;-78
2021/06/18 04:49:04;;;;;;;29.85;20.25;;;;;;;19.02;79.12;101075.41;5073093;28;20089;-76
2021/06/18 04:51:30;;;;;;;31.70;19.50;;;;;;;19.06;78.83;101087.41;5072766;28;20032;-76
2021/06/18 04:53:55;;;;;;;24.15;19.35;;;;;;;19.05;79.03;101088.56;5072922;28;20040;-75
2021/06/18 04:56:21;;;;;;;26.67;19.67;;;;;;;19.04;78.93;101097.16;5072705;28;20028;-76
2021/06/18 04:58:46;;;;;;;24.42;20.17;;;;;;;19.04;78.98;101094.41;5061547;28;20154;-75
2021/06/18 05:01:11;;;;;;;21.98;19.63;;;;;;;19.08;79.09;101096.19;5071736;28;20475;-76
2021/06/18 05:03:37;;;;;;;24.85;20.15;;;;;;;19.11;79.04;101088.41;5072059;28;20017;-76
2021/06/18 05:06:03;;;;;;;27.33;20.35;;;;;;;19.11;79.07;101099.47;5067464;28;20024;-75
2021/06/18 05:08:28;;;;;;;28.48;20.35;;;;;;;19.11;78.78;101099.47;5067111;28;20033;-75
2021/06/18 05:10:53;;;;;;;24.70;19.63;;;;;;;19.07;78.98;101100.09;5055349;28;20431;-76
2021/06/18 05:13:19;;;;;;;29.38;21.17;;;;;;;19.10;79.35;101103.34;5064017;28;20025;-75
2021/06/18 05:15:44;;;;;;;26.85;21.30;;;;;;;19.12;78.99;101107.41;5062043;28;20036;-77
2021/06/18 05:18:10;;;;;;;26.42;21.83;;;;;;;19.13;79.32;101113.78;5069569;28;20016;-76
2021/06/18 05:20:36;;;;;;;28.98;24.02;;;;;;;19.10;79.61;101122.69;5068844;28;20450;-76
2021/06/18 05:23:03;;;;;;;28.55;23.40;;;;;;;19.07;79.53;101116.69;5075261;28;20024;-76
2021/06/18 05:25:28;;;;;;;27.98;23.00;;;;;;;19.06;79.83;101120.56;5069645;28;20039;-75
2021/06/18 05:27:54;;;;;;;33.35;22.25;;;;;;;19.02;79.58;101119.59;5067747;28;20028;-76
2021/06/18 05:30:19;;;;;;;32.47;21.98;;;;;;;19.00;79.76;101127.41;5070278;28;20500;-76
2021/06/18 05:32:45;;;;;;;33.25;24.17;;;;;;;18.98;79.91;101135.19;5069938;28;20032;-75
2021/06/18 05:35:11;;;;;;;30.48;23.77;;;;;;;18.99;80.07;101150.66;5068422;28;20332;-75
2021/06/18 05:37:36;;;;;;;29.10;23.65;;;;;;;19.02;80.13;101157.47;5068424;28;20537;-75
2021/06/18 05:40:02;;;;;;;29.35;23.85;;;;;;;19.02;80.25;101150.00;5069075;28;20020;-75
2021/06/18 05:42:29;;;;;;;35.88;25.05;;;;;;;19.03;80.20;101159.09;5066789;28;20032;-75
2021/06/18 05:44:54;;;;;;;34.63;25.73;;;;;;;19.03;79.97;101154.38;5072180;28;20024;-76
2021/06/18 05:47:20;;;;;;;31.15;24.90;;;;;;;19.01;80.21;101148.34;5065941;28;20071;-76
2021/06/18 05:49:45;;;;;;;31.08;26.45;;;;;;;18.98;80.47;101146.25;5066167;28;20051;-74
2021/06/18 05:52:11;;;;;;;27.75;24.75;;;;;;;19.00;80.21;101155.03;5069963;28;20032;-77
2021/06/18 05:54:36;;;;;;;31.65;26.42;;;;;;;19.03;80.55;101164.63;5058326;28;20040;-77
2021/06/18 05:57:02;;;;;;;31.48;26.20;;;;;;;19.07;80.40;101160.91;5072866;28;20393;-76
2021/06/18 05:59:27;;;;;;;33.30;26.23;;;;;;;19.12;80.28;101157.16;5071739;28;20036;-75
2021/06/18 06:01:53;;;;;;;31.38;27.27;;;;;;;19.17;80.43;101175.53;5055569;28;20449;-76
2021/06/18 06:04:18;;;;;;;31.20;25.98;;;;;;;19.20;80.36;101169.38;5050335;28;20024;-75
2021/06/18 06:06:44;;;;;;;34.72;27.48;;;;;;;19.24;80.10;101175.91;5075410;28;20470;-75
2021/06/18 06:09:09;;;;;;;32.58;27.17;;;;;;;19.23;80.02;101174.25;5074798;28;20052;-75
2021/06/18 06:11:35;;;;;;;38.25;27.55;;;;;;;19.22;80.09;101172.63;5075690;28;20031;-75
2021/06/18 06:14:02;;;;;;;35.60;27.70;;;;;;;19.21;80.15;101187.59;5068617;28;20033;-75
2021/06/18 06:16:32;;;;;;;34.97;27.45;;;;;;;19.26;80.17;101179.13;5070447;28;20028;-76
2021/06/18 06:18:57;;;;;;;34.95;28.83;;;;;;;19.34;80.07;101180.28;5068522;28;20047;-76
2021/06/18 06:21:23;;;;;;;37.78;30.23;;;;;;;19.43;80.00;101190.22;5072442;28;20453;-76
2021/06/18 06:23:49;;;;;;;37.45;33.55;;;;;;;19.46;79.66;101200.63;5070113;28;20083;-75
2021/06/18 06:26:15;;;;;;;39.92;32.42;;;;;;;19.39;79.77;101211.34;5074210;28;20468;-76
2021/06/18 06:28:40;;;;;;;40.38;33.55;;;;;;;19.35;79.57;101209.56;5072450;28;20727;-76
2021/06/18 06:31:06;;;;;;;38.33;33.20;;;;;;;19.26;79.70;101223.34;5073325;28;20036;-76
2021/06/18 06:33:31;;;;;;;38.08;34.00;;;;;;;19.21;80.08;101223.53;5062726;28;20078;-76
2021/06/18 06:35:56;;;;;;;42.38;33.15;;;;;;;19.17;80.33;101222.53;5063726;28;20376;-76
2021/06/18 06:38:22;;;;;;;42.80;35.28;;;;;;;19.16;80.17;101220.91;5072986;28;20494;-76
2021/06/18 06:40:48;;;;;;;38.13;34.08;;;;;;;19.20;79.92;101225.47;5072885;28;20278;-76
2021/06/18 06:43:13;;;;;;;39.13;34.92;;;;;;;19.27;80.16;101241.59;5073520;28;20031;-76
2021/06/18 06:45:39;;;;;;;40.28;34.63;;;;;;;19.27;79.80;101252.66;5068079;28;20077;-76
2021/06/18 06:48:04;;;;;;;43.17;34.00;;;;;;;19.27;79.96;101252.66;5072230;28;20054;-76
2021/06/18 06:50:30;;;;;;;36.17;31.85;;;;;;;19.33;79.65;101254.13;5071341;28;20034;-76
2021/06/18 06:52:55;;;;;;;36.78;31.30;;;;;;;19.41;79.86;101256.09;5049012;28;20040;-76
2021/06/18 06:55:21;;;;;;;39.67;32.45;;;;;;;19.46;79.34;101246.84;5072879;28;20101;-76
2021/06/18 06:57:46;;;;;;;35.40;31.70;;;;;;;19.45;79.46;101248.78;5073993;28;20027;-76
2021/06/18 07:00:12;;;;;;;37.72;33.17;;;;;;;19.51;79.51;101244.72;5071317;28;20498;-77
2021/06/18 07:02:38;;;;;;;42.90;36.35;;;;;;;19.58;78.87;101252.53;5072579;28;20409;-76
2021/06/18 07:05:03;;;;;;;42.03;37.50;;;;;;;19.58;78.87;101246.19;5081583;28;20031;-76
2021/06/18 07:07:29;;;;;;;40.97;35.17;;;;;;;19.62;78.45;101269.31;5074970;28;20049;-77
2021/06/18 07:09:54;;;;;;;40.65;36.08;;;;;;;19.65;78.28;101274.19;5073453;28;20024;-76
2021/06/18 07:12:20;;;;;;;40.85;36.55;;;;;;;19.67;78.42;101266.41;5073114;28;20027;-77
2021/06/18 07:14:45;;;;;;;38.55;33.55;;;;;;;19.71;77.96;101278.47;5077914;28;20028;-76
2021/06/18 07:17:11;;;;;;;39.15;33.25;;;;;;;19.75;78.21;101273.91;5070906;28;20516;-76
2021/06/18 07:19:36;;;;;;;38.90;33.72;;;;;;;19.81;77.54;101272.63;5070799;28;20539;-76
2021/06/18 07:22:02;;;;;;;46.58;37.10;;;;;;;19.81;77.55;101285.66;5072726;28;20020;-76
2021/06/18 07:24:28;;;;;;;40.65;32.65;;;;;;;19.87;77.21;101276.84;5073942;28;20028;-78
2021/06/18 07:26:53;;;;;;;44.65;30.42;;;;;;;19.89;76.45;101285.66;5072477;28;20029;-78
2021/06/18 07:29:19;;;;;;;44.20;27.08;;;;;;;19.91;76.13;101291.66;5072978;28;20028;-78
2021/06/18 07:31:44;;;;;;;42.58;24.10;;;;;;;19.70;75.57;101307.28;5069620;28;20020;-78
2021/06/18 07:34:10;;;;;;;48.92;24.85;;;;;;;19.52;75.99;101304.44;5073557;28;20025;-78
2021/06/18 07:36:35;;;;;;;51.53;24.25;;;;;;;19.45;75.98;101315.16;5071504;28;20124;-78
2021/06/18 07:39:00;;;;;;;46.97;22.50;;;;;;;19.33;75.96;101297.56;5070363;28;20048;-79
2021/06/18 07:41:27;;;;;;;43.42;19.90;;;;;;;19.30;76.25;101293.47;5068033;28;20463;-79
2021/06/18 07:43:52;;;;;;;36.72;20.48;;;;;;;19.27;76.62;101288.59;5076384;28;20028;-80
2021/06/18 07:46:20;;;;;;;43.35;19.67;;;;;;;19.31;76.32;101292.31;5073740;28;20024;-78
2021/06/18 07:48:45;;;;;;;39.25;19.98;;;;;;;19.36;76.48;101288.63;5071338;28;20032;-79
2021/06/18 07:51:11;;;;;;;29.55;17.08;;;;;;;19.44;76.24;101272.03;5066779;28;20037;-79
2021/06/18 07:53:36;;;;;;;39.50;18.45;;;;;;;19.60;76.49;101277.94;5064483;28;20093;-79
2021/06/18 07:56:04;;;;;;;35.03;18.13;;;;;;;19.66;76.00;101289.69;5068023;28;20032;-82
2021/06/18 07:58:30;;;;;;;44.15;17.58;;;;;;;19.69;75.55;101294.56;5068857;28;20084;-85
2021/06/18 08:00:57;;;;;;;31.40;16.25;;;;;;;19.83;76.01;101298.00;5052181;28;20101;-85
2021/06/18 08:03:23;;;;;;;29.30;16.33;;;;;;;20.05;75.53;101291.53;5034427;28;20035;-82
2021/06/18 08:05:49;;;;;;;27.45;15.68;;;;;;;20.25;75.30;101295.56;5052421;28;20044;-83
2021/06/18 08:08:14;;;;;;;25.73;16.30;;;;;;;20.44;74.55;101280.56;5050756;28;20535;-84
2021/06/18 08:10:42;;;;;;;37.40;15.57;;;;;;;20.39;74.06;101285.13;5067074;28;20032;-83
2021/06/18 08:13:07;;;;;;;23.90;15.05;;;;;;;20.47;73.75;101299.28;5051963;28;20028;-83
2021/06/18 08:15:33;;;;;;;22.67;13.63;;;;;;;20.56;73.32;101297.34;5065396;28;20028;-81
2021/06/18 08:17:59;;;;;;;24.17;14.23;;;;;;;20.66;73.20;101285.91;5035605;28;20043;-82
2021/06/18 08:20:25;;;;;;;17.85;14.10;;;;;;;20.84;73.09;101281.97;5056923;28;20016;-82
2021/06/18 08:22:51;;;;;;;14.45;10.50;;;;;;;20.94;72.03;101280.75;5072671;28;20115;-82
2021/06/18 08:25:17;;;;;;;8.68;7.80;;;;;;;20.80;71.73;101289.28;5056224;28;20066;-81
2021/06/18 08:27:44;;;;;;;10.05;8.00;;;;;;;20.58;71.21;101290.34;5043787;28;20034;-81
2021/06/18 08:30:11;;;;;;;11.00;9.45;;;;;;;20.33;71.48;101283.66;5045925;28;20481;-84
2021/06/18 08:32:37;;;;;;;11.30;8.95;;;;;;;20.22;71.55;101290.69;5057855;28;20438;-82
2021/06/18 08:35:03;;;;;;;11.63;9.50;;;;;;;20.20;71.92;101301.28;5070245;28;20035;-83
2021/06/18 08:37:29;;;;;;;9.27;8.13;;;;;;;20.33;72.14;101311.38;5035536;28;20072;-81
2021/06/18 08:39:56;;;;;;;6.57;5.95;;;;;;;20.53;71.69;101309.06;5054471;28;20728;-84
2021/06/18 08:42:22;;;;;;;7.57;6.88;;;;;;;20.69;71.62;101312.97;5050987;28;20048;-82
2021/06/18 08:44:47;;;;;;;7.93;7.28;;;;;;;20.79;70.88;101309.84;5053560;28;20075;-80
2021/06/18 08:47:13;;;;;;;7.22;6.63;;;;;;;20.86;70.92;101309.31;5069392;28;20543;-81
2021/06/18 08:49:39;;;;;;;7.47;6.82;;;;;;;21.06;70.43;101318.88;5046398;28;20045;-82
2021/06/18 08:52:05;;;;;;;7.90;7.20;;;;;;;21.14;69.85;101315.25;5053646;28;20367;-83
2021/06/18 08:54:43;;;;;;;8.82;8.02;;;;;;;21.18;69.57;101330.09;5059490;28;20114;-82
2021/06/18 08:57:18;;;;;;;9.55;8.65;;;;;;;21.21;69.46;101346.06;5057572;28;20020;-79
2021/06/18 08:59:44;;;;;;;9.60;8.80;;;;;;;21.32;69.25;101351.25;5036066;28;20040;-80
2021/06/18 09:02:11;;;;;;;12.45;11.35;;;;;;;21.34;68.54;101348.97;5050518;28;20024;-80
2021/06/18 09:05:01;;;;;;;14.23;12.93;;;;;;;21.34;68.84;101355.31;5052011;28;20086;-78
2021/06/18 09:07:27;;;;;;;13.07;11.43;;;;;;;21.59;68.52;101359.13;5085368;28;20024;-78
2021/06/18 09:09:53;;;;;;;16.30;12.63;;;;;;;21.76;67.76;101360.19;5054446;28;20023;-79
2021/06/18 09:12:19;;;;;;;13.88;12.40;;;;;;;21.70;67.68;101357.59;5053501;28;20619;-79
2021/06/18 09:14:44;;;;;;;12.90;11.60;;;;;;;21.68;67.33;101359.88;5034568;28;20032;-78
2021/06/18 09:17:17;;;;;;;12.10;10.90;;;;;;;21.66;67.73;101353.88;5051176;28;20044;-80
2021/06/18 09:19:49;;;;;;;12.63;11.32;;;;;;;21.76;67.31;101349.06;5064729;28;20025;-76
2021/06/18 09:22:19;;;;;;;15.73;13.68;;;;;;;21.93;67.29;101354.50;5061883;28;20355;-76
2021/06/18 09:25:06;;;;;;;21.83;14.30;;;;;;;22.06;67.10;101353.44;5047852;28;20390;-76
2021/06/18 09:28:03;;;;;;;48.75;16.08;;;;;;;22.16;66.37;101353.03;5064326;28;20060;-76
2021/06/18 09:30:33;;;;;;;25.08;14.75;;;;;;;22.02;66.14;101354.47;5057261;28;20465;-76
2021/06/18 09:33:20;;;;;;;23.30;16.10;;;;;;;21.83;66.72;101350.19;5052166;28;20062;-74
2021/06/18 09:36:07;;;;;;;21.48;16.33;;;;;;;21.83;67.10;101358.50;5071233;28;20021;-85
2021/06/18 09:38:49;;;;;;;23.08;17.00;;;;;;;21.96;66.82;101362.16;5070518;28;20036;-75
2021/06/18 09:41:31;;;;;;;35.30;19.25;;;;;;;21.89;66.35;101364.66;5062454;28;20036;-76
2021/06/18 09:44:00;;;;;;;27.77;19.55;;;;;;;21.83;66.96;101354.91;5050913;28;20565;-78
2021/06/18 09:46:43;;;;;;;31.65;19.90;;;;;;;22.00;66.61;101349.22;5067099;28;20032;-78
2021/06/18 09:49:34;;;;;;;26.08;18.90;;;;;;;22.16;66.69;101366.91;5065751;28;20130;-78
2021/06/18 09:52:03;;;;;;;27.52;22.02;;;;;;;22.35;66.33;101371.22;5067017;28;20032;-78
2021/06/18 09:54:33;;;;;;;30.50;22.90;;;;;;;22.49;66.01;101370.94;5070863;28;20485;-79
2021/06/18 09:57:13;;;;;;;35.72;23.73;;;;;;;22.46;65.80;101361.31;5069534;28;20033;-78
2021/06/18 09:59:48;;;;;;;33.95;25.10;;;;;;;22.44;65.60;101377.50;5072478;28;20114;-78
2021/06/18 10:02:14;;;;;;;40.55;26.95;;;;;;;22.53;66.02;101378.22;5067404;28;20012;-77
2021/06/18 10:04:41;;;;;;;41.65;28.88;;;;;;;22.46;65.57;101377.19;5072374;28;20075;-78
2021/06/18 10:07:07;;;;;;;43.05;27.08;;;;;;;21.93;66.24;101387.81;5068121;28;20043;-80
2021/06/18 10:09:33;;;;;;;43.17;29.25;;;;;;;21.64;67.48;101391.44;5070229;28;20025;-78
2021/06/18 10:11:58;;;;;;;46.13;29.13;;;;;;;21.55;67.34;101399.78;5055133;28;20074;-77
2021/06/18 10:14:24;;;;;;;43.88;30.48;;;;;;;21.52;67.98;101394.91;5076445;28;20024;-76
2021/06/18 10:16:49;;;;;;;48.40;30.88;;;;;;;21.55;68.07;101399.78;5066609;28;20040;-78
2021/06/18 10:19:14;;;;;;;40.58;27.98;;;;;;;21.63;68.21;101389.78;5068032;28;20028;-78
2021/06/18 10:22:05;;;;;;;47.38;31.70;;;;;;;21.61;67.79;101404.00;5067072;28;20041;-77
2021/06/18 10:24:59;;;;;;;51.28;33.03;;;;;;;21.43;68.43;101403.25;5084103;28;20054;-76
2021/06/18 10:27:33;;;;;;;52.58;34.40;;;;;;;21.50;68.59;101402.75;5058619;28;20036;-76
2021/06/18 10:30:23;;;;;;;53.95;33.88;;;;;;;21.58;68.56;101399.13;5068129;28;20481;-76
2021/06/18 10:32:49;;;;;;;47.80;28.83;;;;;;;21.81;68.60;101393.28;5064502;28;20059;-75
2021/06/18 10:35:41;;;;;;;49.53;32.03;;;;;;;22.15;67.48;101395.00;5071965;28;20040;-76
2021/06/18 10:38:33;;;;;;;53.35;35.50;;;;;;;21.79;67.18;101403.91;5061878;28;20049;-75
2021/06/18 10:41:14;;;;;;;51.57;36.00;;;;;;;21.84;67.59;101401.75;5066420;28;20046;-76
2021/06/18 10:43:40;;;;;;;59.95;33.40;;;;;;;21.97;67.33;101404.63;5071807;28;20269;-74
2021/06/18 10:46:07;;;;;;;53.53;31.52;;;;;;;22.25;67.32;101411.31;5071556;28;20561;-76
2021/06/18 10:48:44;;;;;;;54.25;32.97;;;;;;;22.65;66.19;101401.69;5071370;28;20116;-77
2021/06/18 10:51:26;;;;;;;49.35;32.33;;;;;;;22.87;65.31;101406.88;5066922;28;20023;-76
2021/06/18 10:53:55;;;;;;;51.65;31.48;;;;;;;23.08;64.84;101403.25;5069725;28;20112;-76
2021/06/18 10:56:21;;;;;;;37.50;26.17;;;;;;;23.35;64.35;101399.81;5072892;28;20052;-77
2021/06/18 10:59:04;;;;;;;40.28;24.67;;;;;;;23.37;63.95;101397.50;5069944;28;20070;-74
2021/06/18 11:01:31;;;;;;;31.45;25.38;;;;;;;23.32;63.80;101397.72;5071913;28;20028;-77
2021/06/18 11:03:57;;;;;;;33.88;26.05;;;;;;;23.20;63.73;101404.09;5069176;28;20033;-76
2021/06/18 11:06:40;;;;;;;33.38;26.30;;;;;;;23.06;63.66;101406.38;5071109;28;20482;-76
2021/06/18 11:09:06;;;;;;;34.58;26.30;;;;;;;22.86;63.97;101407.19;5068993;28;20039;-76
2021/06/18 11:11:31;;;;;;;37.55;27.20;;;;;;;22.76;64.08;101405.69;5069426;28;20024;-76
2021/06/18 11:14:05;;;;;;;36.78;25.30;;;;;;;23.04;64.07;101408.69;5072036;28;20024;-76
2021/06/18 11:16:33;;;;;;;29.00;23.67;;;;;;;23.19;63.35;101413.59;5071310;28;20020;-76